Mont-Saint-Hilaire, Canada
Current Conditions -  °F | °C
As of 9:00 AM on Friday 19 Dec 2014 (Local Time) from CYHU Reporting Station
Overcast Overcast  
Wind Chill: 14°   Ceiling: 2300
Heat Index: 25°   Visibility: 9mi
Dew Point: 16°   Wind: 12mph
Humidity: 69%   Direction: 330°NNW
Pressure: 30.07"   Gusts: NA
Location:  45.53°N, 73.17°W
Report Text: CYHU 191400Z AUTO 33010KT 9SM OVC023 M04/M09 A3007 RMK SLP183
Loading
Personal Weather Stations






























Interactive Weather Map New forecast layout! Learn more

10-Day Weather Forecast

Advertisements
Track Severe Weather on mobile